Time;durP1;ratioP1;P1;durP2;ratioP2;P2;SDS_P1;SDS_P2;PMS_P1;PMS_P2;Temp;Humidity;BMP_temperature;BMP_pressure;BME280_temperature;BME280_humidity;BME280_pressure;Samples;Min_cycle;Max_cycle;Signal;HPM_P1;HPM_P2
2022/11/13 00:02:06;;;;;;;20.50;11.10;;;;;;;;;;4971711;28;20081;-83
2022/11/13 00:04:34;;;;;;;19.83;10.88;;;;;;;;;;4969260;28;20058;-84
2022/11/13 00:07:00;;;;;;;18.23;10.90;;;;;;;;;;4956249;28;20027;-88
2022/11/13 00:09:26;;;;;;;20.40;11.30;;;;;;;;;;4968214;28;20031;-86
2022/11/13 00:11:52;;;;;;;17.35;10.32;;;;;;;;;;4970443;28;20035;-86
2022/11/13 00:14:27;;;;;;;18.70;11.38;;;;;;;;;;4973262;28;20154;-88
2022/11/13 00:16:53;;;;;;;18.52;10.73;;;;;;;;;;4975943;28;20053;-87
2022/11/13 00:19:19;;;;;;;17.42;9.93;;;;;;;;;;4957713;28;20026;-85
2022/11/13 00:21:45;;;;;;;17.45;10.15;;;;;;;;;;4956007;28;20062;-89
2022/11/13 00:24:11;;;;;;;16.70;9.80;;;;;;;;;;4961281;28;20059;-84
2022/11/13 00:26:38;;;;;;;18.73;10.27;;;;;;;;;;4957467;28;20378;-83
2022/11/13 00:29:04;;;;;;;16.50;10.05;;;;;;;;;;4952663;28;20508;-82
2022/11/13 00:31:33;;;;;;;15.65;9.85;;;;;;;;;;4958177;28;20042;-82
2022/11/13 00:33:59;;;;;;;16.40;10.13;;;;;;;;;;4952864;28;20026;-83
2022/11/13 00:36:34;;;;;;;15.07;9.00;;;;;;;;;;4957860;28;20031;-84
2022/11/13 00:39:00;;;;;;;16.38;9.27;;;;;;;;;;4964109;28;20054;-88
2022/11/13 00:41:26;;;;;;;14.55;8.77;;;;;;;;;;4969254;28;20034;-85
2022/11/13 00:43:52;;;;;;;15.43;8.75;;;;;;;;;;4980674;28;20087;-82
2022/11/13 00:46:18;;;;;;;14.65;8.93;;;;;;;;;;4971374;28;20077;-83
2022/11/13 00:48:44;;;;;;;13.95;8.32;;;;;;;;;;4954500;28;20401;-82
2022/11/13 00:51:10;;;;;;;14.23;8.75;;;;;;;;;;4960145;28;20054;-83
2022/11/13 00:53:36;;;;;;;15.38;9.00;;;;;;;;;;4961746;28;20067;-83
2022/11/13 00:56:03;;;;;;;13.65;8.82;;;;;;;;;;4958461;28;20615;-83
2022/11/13 00:58:29;;;;;;;14.15;8.90;;;;;;;;;;4958499;28;20031;-84
2022/11/13 01:00:55;;;;;;;12.15;8.13;;;;;;;;;;4967796;28;20031;-85
2022/11/13 01:03:21;;;;;;;15.23;8.75;;;7.60;99.90;;;;;;4987649;28;20027;-83
2022/11/13 01:05:47;;;;;;;17.52;10.15;;;;;;;;;;4973735;28;20040;-84
2022/11/13 01:08:14;;;;;;;15.80;9.10;;;;;;;;;;4961923;28;20053;-85
2022/11/13 01:10:46;;;;;;;14.02;7.95;;;7.60;99.90;;;;;;4963459;28;20034;-82
2022/11/13 01:13:12;;;;;;;12.40;7.82;;;;;;;;;;4951649;28;20119;-85
2022/11/13 01:15:42;;;;;;;12.65;7.63;;;7.60;99.90;;;;;;4999305;28;20046;-87
2022/11/13 01:18:08;;;;;;;12.07;7.57;;;;;;;;;;4980164;28;20022;-87
2022/11/13 01:20:35;;;;;;;11.35;7.00;;;;;;;;;;4996512;28;20050;-87
2022/11/13 01:23:01;;;;;;;11.32;7.03;;;;;;;;;;4978528;28;20023;-83
2022/11/13 01:25:28;;;;;;;10.05;6.78;;;;;;;;;;4957257;28;20034;-88
2022/11/13 01:27:54;;;;;;;11.45;7.38;;;;;;;;;;4966052;28;20011;-86
2022/11/13 01:30:20;;;;;;;12.00;7.20;;;;;;;;;;4959495;28;20027;-86
2022/11/13 01:32:46;;;;;;;10.88;7.40;;;;;;;;;;4976116;28;20034;-86
2022/11/13 01:35:12;;;;;;;10.82;6.93;;;;;;;;;;4966470;28;20034;-87
2022/11/13 01:37:38;;;;;;;11.57;6.82;;;;;;;;;;4964215;28;20484;-86
2022/11/13 01:40:04;;;;;;;11.20;7.28;;;;;;;;;;4967941;28;20026;-82
2022/11/13 01:42:32;;;;;;;10.27;6.75;;;;;;;;;;4964079;28;20127;-82
2022/11/13 01:44:59;;;;;;;10.48;7.00;;;;;;;;;;4961475;28;20022;-85
2022/11/13 01:47:26;;;;;;;11.95;7.38;;;;;;;;;;4975897;28;20030;-84
2022/11/13 01:49:53;;;;;;;11.63;7.18;;;;;;;;;;4971134;28;20038;-86
2022/11/13 01:52:22;;;;;;;10.20;6.85;;;;;;;;;;4969922;28;20023;-87
2022/11/13 01:54:50;;;;;;;10.90;6.78;;;;;;;;;;4979125;28;20022;-85
2022/11/13 01:57:16;;;;;;;9.63;6.25;;;;;;;;;;4993513;28;20022;-85
2022/11/13 01:59:46;;;;;;;9.25;5.88;;;;;;;;;;4981441;28;20038;-86
2022/11/13 02:02:13;;;;;;;10.05;6.60;;;;;;;;;;4978165;28;20015;-84
2022/11/13 02:04:39;;;;;;;10.82;6.45;;;;;;;;;;4965847;28;20050;-84
2022/11/13 02:07:11;;;;;;;9.60;6.25;;;7.30;99.90;;;;;;4964379;28;20027;-84
2022/11/13 02:09:39;;;;;;;10.73;6.28;;;;;;;;;;4977300;28;20027;-82
2022/11/13 02:12:06;;;;;;;8.77;5.93;;;;;;;;;;4966587;28;20019;-84
2022/11/13 02:14:33;;;;;;;8.10;5.70;;;;;;;;;;4962145;28;20034;-86
2022/11/13 02:17:01;;;;;;;9.90;6.40;;;;;;;;;;4963125;28;20027;-87
2022/11/13 02:19:30;;;;;;;8.75;5.90;;;;;;;;;;4994727;28;20040;-87
2022/11/13 02:22:36;;;;;;;8.55;5.78;;;7.30;99.90;;;;;;4997643;23;20061;-86
2022/11/13 04:40:35;;;;;;;9.20;6.20;;;6.40;99.90;;;;;;5009488;23;21432;-86
2022/11/13 04:43:02;;;;;;;9.68;6.05;;;7.80;99.90;;;;;;5012973;28;20387;-83
2022/11/13 04:45:28;;;;;;;9.32;5.97;;;7.30;99.90;;;;;;5010279;28;20571;-82
2022/11/13 04:47:57;;;;;;;9.98;6.60;;;7.80;99.90;;;;;;5022474;28;20084;-83
2022/11/13 04:50:23;;;;;;;9.73;6.43;;;5.80;99.90;;;;;;5009259;28;20053;-86
2022/11/13 04:52:48;;;;;;;10.32;6.07;;;6.20;99.90;;;;;;5028837;28;20030;-80
2022/11/13 04:55:14;;;;;;;15.00;6.65;;;8.40;99.90;;;;;;5009807;28;20033;-85
2022/11/13 04:57:40;;;;;;;11.07;6.63;;;5.80;99.90;;;;;;4986001;28;20167;-82
2022/11/13 05:00:07;;;;;;;10.32;6.63;;;5.80;99.90;;;;;;5014959;28;20018;-83
2022/11/13 05:02:34;;;;;;;9.10;6.13;;;;;;;;;;5004879;28;20033;-83
2022/11/13 05:05:00;;;;;;;10.35;6.32;;;;;;;;;;5012648;28;20034;-84
2022/11/13 05:07:26;;;;;;;9.93;6.60;;;;;;;;;;5026231;28;20045;-82
2022/11/13 05:09:52;;;;;;;11.10;7.05;;;5.70;99.90;;;;;;5025034;28;20034;-86
2022/11/13 05:12:19;;;;;;;11.20;6.90;;;8.30;99.90;;;;;;4996212;28;20061;-85
2022/11/13 05:14:44;;;;;;;13.50;6.95;;;5.60;99.90;;;;;;5028709;28;20113;-80
2022/11/13 05:17:12;;;;;;;12.70;7.15;;;8.00;99.90;;;;;;5001825;28;20491;-83
2022/11/13 05:19:38;;;;;;;10.50;7.10;;;7.30;99.90;;;;;;5000807;28;20482;-82
2022/11/13 05:22:05;;;;;;;10.90;7.03;;;7.20;99.90;;;;;;5034645;28;20049;-88
2022/11/13 05:24:31;;;;;;;11.75;7.20;;;7.20;99.90;;;;;;5024649;28;20014;-89
2022/11/13 05:26:57;;;;;;;10.77;7.13;;;7.00;99.90;;;;;;5022198;28;20034;-85
2022/11/13 05:29:23;;;;;;;12.13;7.40;;;6.00;99.90;;;;;;5017516;28;20030;-84
2022/11/13 05:31:49;;;;;;;12.02;7.43;;;8.20;99.90;;;;;;5020825;28;20038;-86
2022/11/13 05:34:14;;;;;;;12.98;7.68;;;8.10;99.90;;;;;;5016987;28;20110;-83
2022/11/13 05:36:40;;;;;;;11.93;7.72;;;7.00;99.90;;;;;;5003862;28;20037;-82
2022/11/13 05:39:06;;;;;;;12.30;7.90;;;7.90;99.90;;;;;;5011429;28;20026;-82
2022/11/13 05:41:32;;;;;;;11.32;7.32;;;5.70;99.90;;;;;;5011929;28;20040;-84
2022/11/13 05:43:58;;;;;;;12.65;7.88;;;8.10;99.90;;;;;;5001415;23;20071;-82
2022/11/13 05:46:26;;;;;;;11.90;7.97;;;6.80;99.90;;;;;;4977588;28;20090;-82
2022/11/13 05:48:54;;;;;;;13.73;8.43;;;6.90;99.90;;;;;;4977667;28;20031;-87
2022/11/13 05:51:23;;;;;;;13.65;8.10;;;7.60;99.90;;;;;;4956845;29;20011;-86
2022/11/13 05:53:49;;;;;;;12.93;7.90;;;8.20;99.90;;;;;;4961992;28;20027;-85
2022/11/13 05:56:16;;;;;;;11.70;7.25;;;5.90;99.90;;;;;;4958946;28;20095;-86
2022/11/13 05:58:42;;;;;;;12.43;8.05;;;8.00;99.90;;;;;;4979020;28;20027;-88
2022/11/13 06:01:13;;;;;;;11.93;8.07;;;6.00;99.90;;;;;;4977626;28;20027;-85
2022/11/13 06:03:40;;;;;;;12.90;8.25;;;5.90;99.90;;;;;;4980075;28;20022;-87
2022/11/13 06:24:10;;;;;;;15.35;8.35;;;6.00;99.90;;;;;;4993184;28;20039;-83
2022/11/13 06:26:37;;;;;;;11.48;7.55;;;6.00;99.90;;;;;;4989216;28;20145;-82
2022/11/13 06:29:04;;;;;;;12.32;7.85;;;5.90;99.90;;;;;;4985850;28;20029;-83
2022/11/13 06:31:32;;;;;;;11.13;7.20;;;7.20;99.90;;;;;;4971655;28;20031;-82
2022/11/13 06:33:59;;;;;;;11.32;7.43;;;7.90;99.90;;;;;;4992447;28;20029;-85
2022/11/13 06:36:27;;;;;;;14.00;8.15;;;5.90;99.90;;;;;;4980523;28;20030;-82
2022/11/13 06:38:53;;;;;;;12.35;7.53;;;8.10;99.90;;;;;;4983376;28;20081;-86
2022/11/13 06:41:21;;;;;;;12.48;8.13;;;8.00;99.90;;;;;;4967904;28;20097;-84
2022/11/13 06:43:47;;;;;;;11.07;7.25;;;5.90;99.90;;;;;;4990294;28;20026;-85
2022/11/13 06:46:19;;;;;;;12.38;7.88;;;7.70;99.90;;;;;;4947278;28;20039;-85
2022/11/13 06:48:45;;;;;;;13.20;7.75;;;5.80;99.90;;;;;;4972474;28;20023;-86
2022/11/13 06:51:23;;;;;;;14.18;8.38;;;7.80;99.90;;;;;;4977746;28;20023;-88
2022/11/13 06:53:49;;;;;;;13.07;8.13;;;5.80;99.90;;;;;;4968473;28;20396;-87
2022/11/13 06:56:18;;;;;;;12.15;7.35;;;8.10;99.90;;;;;;4960661;28;20015;-83
2022/11/13 06:58:47;;;;;;;12.85;8.32;;;5.80;99.90;;;;;;4978696;28;20027;-81
2022/11/13 07:01:16;;;;;;;13.27;8.35;;;5.70;99.90;;;;;;4962728;28;20027;-86
2022/11/13 07:03:42;;;;;;;12.65;8.30;;;8.00;99.90;;;;;;4967654;28;20033;-83
2022/11/13 07:06:12;;;;;;;12.20;7.97;;;4.60;99.90;;;;;;4960720;28;20102;-84
2022/11/13 07:08:42;;;;;;;14.23;8.13;;;7.30;99.90;;;;;;4959901;28;20059;-82
2022/11/13 07:11:11;;;;;;;13.35;7.80;;;6.20;99.90;;;;;;4951044;28;20046;-82
2022/11/13 07:13:37;;;;;;;12.80;7.80;;;7.90;99.90;;;;;;4957832;28;20036;-84
2022/11/13 07:16:23;;;;;;;11.65;7.72;;;5.60;99.90;;;;;;4969280;28;20066;-85
2022/11/13 07:18:51;;;;;;;11.70;7.50;;;5.70;99.90;;;;;;4967033;28;20035;-85
2022/11/13 07:21:18;;;;;;;12.80;7.75;;;5.10;99.90;;;;;;4943629;28;20031;-83
2022/11/13 07:23:46;;;;;;;13.02;7.45;;;6.90;99.90;;;;;;4975584;28;20030;-85
2022/11/13 07:26:12;;;;;;;11.98;7.90;;;5.50;99.90;;;;;;4969530;28;20039;-83
2022/11/13 07:28:38;;;;;;;11.77;7.32;;;7.90;99.90;;;;;;4971593;28;20094;-83
2022/11/13 07:31:07;;;;;;;11.00;7.45;;;6.80;99.90;;;;;;4975174;28;20019;-84
2022/11/13 07:33:33;;;;;;;13.50;7.25;;;7.30;99.90;;;;;;4975717;28;20031;-84
2022/11/13 07:36:01;;;;;;;12.20;7.22;;;7.60;99.90;;;;;;4971192;28;20041;-83
2022/11/13 07:38:27;;;;;;;13.95;7.50;;;6.50;99.90;;;;;;4991446;28;20023;-82
2022/11/13 07:40:53;;;;;;;11.77;7.35;;;7.50;99.90;;;;;;4986356;28;20052;-85
2022/11/13 07:43:19;;;;;;;12.13;7.72;;;6.70;99.90;;;;;;4989695;28;20034;-83
2022/11/13 07:45:44;;;;;;;12.30;7.65;;;5.80;99.90;;;;;;4975071;28;20086;-85
2022/11/13 07:48:10;;;;;;;12.18;7.40;;;7.70;99.90;;;;;;4965851;28;20035;-85
2022/11/13 07:50:37;;;;;;;10.95;7.38;;;5.90;99.90;;;;;;4983598;28;20042;-87
2022/11/13 07:53:06;;;;;;;12.27;6.38;;;4.30;99.90;;;;;;4954774;28;20045;-84
2022/11/13 07:55:34;;;;;;;11.65;7.47;;;7.90;99.90;;;;;;4975296;28;20041;-84
2022/11/13 07:58:03;;;;;;;11.27;6.95;;;6.60;99.90;;;;;;4970800;28;20038;-82
2022/11/13 08:00:31;;;;;;;11.45;7.30;;;7.70;99.90;;;;;;4976483;28;20018;-83
2022/11/13 08:03:00;;;;;;;12.80;6.25;;;6.10;99.90;;;;;;4959206;28;20090;-84
2022/11/13 08:05:29;;;;;;;11.13;6.97;;;5.90;99.90;;;;;;4977465;28;20043;-84
2022/11/13 08:07:58;;;;;;;11.88;7.00;;;4.60;99.90;;;;;;4966667;28;20037;-83
2022/11/13 08:10:25;;;;;;;10.23;6.47;;;;;;;;;;4969980;28;20034;-83
2022/11/13 08:13:03;;;;;;;11.90;7.88;;;6.20;99.90;;;;;;4971771;28;20086;-87
2022/11/13 08:15:29;;;;;;;11.90;7.38;;;8.90;99.90;;;;;;4976053;28;20058;-82
2022/11/13 08:17:56;;;;;;;11.00;6.70;;;6.40;99.90;;;;;;4972733;28;20027;-82
2022/11/13 08:20:24;;;;;;;11.85;7.43;;;6.40;99.90;;;;;;4990220;28;20019;-87
2022/11/13 08:23:04;;;;;;;10.93;7.15;;;6.50;99.90;;;;;;4972970;28;20027;-84
2022/11/13 08:25:32;;;;;;;10.50;6.93;;;6.50;99.90;;;;;;5009222;28;20030;-84
2022/11/13 08:27:59;;;;;;;11.30;7.15;;;6.50;99.90;;;;;;4991562;28;20027;-84
2022/11/13 08:30:27;;;;;;;10.60;6.80;;;6.70;99.90;;;;;;4986074;28;20034;-82
2022/11/13 08:32:53;;;;;;;11.25;7.07;;;6.00;99.90;;;;;;4957854;28;20023;-85
2022/11/13 08:35:19;;;;;;;10.43;7.00;;;6.80;99.90;;;;;;4983955;28;20074;-84
2022/11/13 08:37:45;;;;;;;12.60;7.15;;;8.80;99.90;;;;;;4971858;28;20050;-86
2022/11/13 08:40:11;;;;;;;11.18;6.63;;;7.00;99.90;;;;;;4973489;28;20054;-86
2022/11/13 08:42:37;;;;;;;10.48;6.65;;;;;;;;;;4976127;28;20015;-84
2022/11/13 08:45:04;;;;;;;11.38;6.13;;;7.10;99.90;;;;;;4973677;28;20090;-86
2022/11/13 08:47:29;;;;;;;9.40;6.18;;;7.10;99.90;;;;;;4970162;28;20032;-84
2022/11/13 08:49:58;;;;;;;12.02;7.00;;;7.90;99.90;;;;;;4992638;28;20428;-84
2022/11/13 09:57:24;;;;;;;9.25;6.10;;;8.50;99.90;;;;;;5003942;28;20042;-88
2022/11/13 10:00:02;;;;;;;7.60;5.55;;;8.50;99.90;;;;;;4984221;28;20037;-88
2022/11/13 10:02:45;;;;;;;8.63;5.75;;;8.70;99.90;;;;;;4989723;28;20496;-87
2022/11/13 10:05:30;;;;;;;7.45;5.30;;;10.00;99.90;;;;;;5003236;28;20045;-88
2022/11/13 10:08:10;;;;;;;7.07;4.90;;;8.50;99.90;;;;;;4980794;28;20027;-88
2022/11/13 10:10:53;;;;;;;7.75;5.18;;;8.60;99.90;;;;;;4982384;28;20030;-88
2022/11/13 10:13:43;;;;;;;9.60;5.60;;;7.00;99.90;;;;;;4991643;28;20026;-86
2022/11/13 10:16:29;;;;;;;7.78;5.32;;;8.60;99.90;;;;;;4991274;28;20034;-89
2022/11/13 10:19:05;;;;;;;8.30;5.07;;;9.00;99.90;;;;;;4979241;28;20023;-87
2022/11/13 10:21:38;;;;;;;9.18;5.40;;;11.30;99.90;;;;;;5000437;28;20026;-86
2022/11/13 10:24:21;;;;;;;6.68;4.60;;;11.30;99.90;;;;;;5002823;28;20026;-88
2022/11/13 10:26:47;;;;;;;6.90;4.95;;;9.00;99.90;;;;;;4974798;28;20508;-88
2022/11/13 10:29:15;;;;;;;7.90;5.20;;;9.70;99.90;;;;;;5000905;28;20029;-88
2022/11/13 10:31:50;;;;;;;8.57;5.10;;;9.00;99.90;;;;;;4987904;28;20125;-88
2022/11/13 10:34:17;;;;;;;7.43;5.20;;;10.30;99.90;;;;;;4979779;28;20062;-85
2022/11/13 10:37:47;;;;;;;8.23;5.07;;;9.20;99.90;;;;;;4983400;28;20050;-87
2022/11/13 10:39:54;;;;;;;10.27;5.80;;;11.10;99.90;;;;;;4996067;28;20030;-87
2022/11/13 10:42:26;;;;;;;8.60;5.40;;;11.30;99.90;;;;;;4988850;28;20049;-88
2022/11/13 10:44:57;;;;;;;6.70;4.70;;;9.60;99.90;;;;;;4983480;28;20050;-87
2022/11/13 10:47:25;;;;;;;6.78;4.78;;;9.70;99.90;;;;;;4990147;28;20093;-89
2022/11/13 10:49:51;;;;;;;7.85;4.97;;;11.30;99.90;;;;;;4982050;28;20479;-91
2022/11/13 10:52:24;;;;;;;6.47;4.43;;;10.00;99.90;;;;;;4983411;28;20031;-88
2022/11/13 10:55:06;;;;;;;7.30;4.70;;;10.50;99.90;;;;;;4985135;28;20023;-87
2022/11/13 10:57:33;;;;;;;8.82;4.70;;;10.10;99.90;;;;;;4988259;28;20037;-85
2022/11/13 11:00:00;;;;;;;6.60;4.25;;;8.30;99.90;;;;;;4987425;28;20073;-90
2022/11/13 11:02:29;;;;;;;6.55;4.47;;;11.90;99.90;;;;;;4984325;28;20037;-88
2022/11/13 11:05:15;;;;;;;6.03;4.33;;;10.50;99.90;;;;;;4983026;28;20042;-88
2022/11/13 11:07:41;;;;;;;7.38;3.90;;;10.40;99.90;;;;;;4978459;28;20058;-83
2022/11/13 11:10:34;;;;;;;5.82;3.72;;;10.50;99.90;;;;;;4982814;28;20097;-86
2022/11/13 11:13:11;;;;;;;6.45;3.90;;;10.60;99.90;;;;;;4966117;28;20084;-86
2022/11/13 11:15:46;;;;;;;8.60;3.88;;;11.80;99.90;;;;;;4992729;28;20030;-87
2022/11/13 11:18:12;;;;;;;6.40;3.92;;;;;;;;;;4980154;28;20034;-86
2022/11/13 11:20:43;;;;;;;4.63;3.40;;;10.80;99.90;;;;;;4972498;28;20126;-87
2022/11/13 11:23:44;;;;;;;6.30;3.13;;;10.80;99.90;;;;;;4995738;28;20045;-88
2022/11/13 11:26:38;;;;;;;5.45;3.55;;;10.50;99.90;;;;;;4962345;28;20089;-86
2022/11/13 11:29:29;;;;;;;5.88;3.75;;;10.90;99.90;;;;;;4987419;28;20500;-87
2022/11/13 11:32:01;;;;;;;5.15;3.30;;;10.90;99.90;;;;;;4983439;28;20058;-87
2022/11/13 11:34:45;;;;;;;4.95;3.20;;;11.00;99.90;;;;;;4993339;28;20079;-87
2022/11/13 11:37:32;;;;;;;5.18;3.30;;;11.00;99.90;;;;;;5002675;28;20508;-89
2022/11/13 11:40:25;;;;;;;4.53;3.25;;;11.90;99.90;;;;;;4998864;28;20003;-89
2022/11/13 11:43:15;;;;;;;7.40;4.10;;;11.30;99.90;;;;;;4990761;28;20094;-88
2022/11/13 11:45:47;;;;;;;5.88;3.72;;;12.50;99.90;;;;;;4999284;28;20607;-88
2022/11/13 11:48:21;;;;;;;5.53;3.53;;;11.40;99.90;;;;;;5002247;28;20022;-88
2022/11/13 11:51:08;;;;;;;5.10;3.33;;;11.40;99.90;;;;;;4982648;28;20031;-89
2022/11/13 11:53:58;;;;;;;4.45;3.05;;;11.50;99.90;;;;;;4981802;28;20077;-88
2022/11/13 11:56:32;;;;;;;4.15;2.95;;;11.50;99.90;;;;;;4988044;28;20041;-88
2022/11/13 11:59:09;;;;;;;4.65;3.03;;;11.60;99.90;;;;;;4979053;28;20027;-86
2022/11/13 12:02:01;;;;;;;4.47;2.95;;;11.80;99.90;;;;;;4982907;28;20026;-85
2022/11/13 12:04:57;;;;;;;5.30;3.53;;;11.90;99.90;;;;;;4992363;28;20025;-89
2022/11/13 12:07:53;;;;;;;4.40;3.03;;;11.70;99.90;;;;;;4980026;28;20030;-87
2022/11/13 12:11:10;;;;;;;4.70;3.00;;;11.70;99.90;;;;;;4984631;28;20085;-87
2022/11/13 12:13:46;;;;;;;4.95;2.92;;;11.90;99.90;;;;;;4943886;28;20267;-88
2022/11/13 12:16:21;;;;;;;4.60;3.10;;;11.90;99.90;;;;;;4984800;28;20116;-86
2022/11/13 12:19:15;;;;;;;4.32;2.80;;;12.00;99.90;;;;;;4992018;28;20030;-88
2022/11/13 12:21:47;;;;;;;4.93;3.10;;;12.00;99.90;;;;;;4994116;28;20039;-86
2022/11/13 12:24:29;;;;;;;4.25;2.90;;;;;;;;;;4993994;28;20048;-88
2022/11/13 12:27:13;;;;;;;4.43;3.00;;;12.10;99.90;;;;;;4987266;28;20388;-85
2022/11/13 12:30:14;;;;;;;4.20;3.00;;;12.10;99.90;;;;;;5002450;28;20023;-87
2022/11/13 12:33:17;;;;;;;4.90;2.83;;;12.10;99.90;;;;;;4970541;28;20062;-87
2022/11/13 12:35:49;;;;;;;4.50;2.88;;;12.30;99.90;;;;;;4989428;28;20062;-87
2022/11/13 12:38:36;;;;;;;5.47;3.33;;;12.80;99.90;;;;;;4985023;28;20029;-87
2022/11/13 12:41:13;;;;;;;5.78;2.72;;;11.40;99.90;;;;;;4982904;28;20023;-86
2022/11/13 12:43:52;;;;;;;4.93;2.78;;;12.20;99.90;;;;;;4989826;28;20026;-87
2022/11/13 12:46:18;;;;;;;3.85;2.67;;;12.30;99.90;;;;;;4990843;28;20030;-87
2022/11/13 12:49:45;;;;;;;4.53;2.38;;;14.10;99.90;;;;;;4996248;28;20035;-87
2022/11/13 12:52:23;;;;;;;3.92;2.45;;;12.40;99.90;;;;;;4998908;28;20054;-85
2022/11/13 12:54:51;;;;;;;4.82;2.80;;;14.50;99.90;;;;;;4981231;28;20034;-88
2022/11/13 12:57:26;;;;;;;5.30;2.63;;;13.20;99.90;;;;;;5002815;28;20054;-87
2022/11/13 13:00:26;;;;;;;4.50;2.65;;;12.40;99.90;;;;;;5006289;28;20034;-87
2022/11/13 13:03:36;;;;;;;4.93;2.63;;;12.40;99.90;;;;;;4973741;28;20038;-88
2022/11/13 13:06:21;;;;;;;6.18;2.92;;;12.40;99.90;;;;;;4988254;28;20038;-89
2022/11/13 13:08:46;;;;;;;4.22;3.00;;;11.70;99.90;;;;;;4987542;28;20116;-86
2022/11/13 13:11:36;;;;;;;4.65;3.20;;;12.70;99.90;;;;;;5025203;23;20018;-91
2022/11/13 13:43:47;;;;;;;4.55;2.70;;;13.00;99.90;;;;;;5009900;28;20058;-86
2022/11/13 13:46:23;;;;;;;3.65;2.60;;;13.00;99.90;;;;;;5011002;28;20519;-89
2022/11/13 13:48:53;;;;;;;3.50;2.50;;;12.90;99.90;;;;;;4988910;28;20034;-87
2022/11/13 13:51:33;;;;;;;5.53;2.78;;;14.10;99.90;;;;;;5007594;28;20026;-87
2022/11/13 13:54:04;;;;;;;3.67;2.25;;;15.60;99.90;;;;;;4992920;28;20483;-88
2022/11/13 13:56:30;;;;;;;3.47;2.05;;;;;;;;;;4993882;28;20085;-88
2022/11/13 13:58:58;;;;;;;3.78;2.25;;;12.90;99.90;;;;;;4979730;28;20093;-87
2022/11/13 14:01:32;;;;;;;4.47;2.25;;;13.00;99.90;;;;;;4982565;28;20085;-86
2022/11/13 14:04:16;;;;;;;5.53;2.53;;;13.60;99.90;;;;;;4977655;28;20504;-85
2022/11/13 14:06:54;;;;;;;3.33;2.15;;;13.00;99.90;;;;;;4992725;28;20116;-87
2022/11/13 14:09:22;;;;;;;3.65;2.55;;;13.00;99.90;;;;;;4978667;28;20050;-86
2022/11/13 14:12:04;;;;;;;4.15;2.30;;;13.00;99.90;;;;;;4986401;28;20026;-85
2022/11/13 14:14:30;;;;;;;3.30;2.08;;;13.00;99.90;;;;;;4988306;28;20027;-85
2022/11/13 14:17:02;;;;;;;4.25;2.10;;;13.10;99.90;;;;;;4980685;28;20033;-87
2022/11/13 14:19:28;;;;;;;4.00;2.00;;;;;;;;;;4987491;28;20027;-86
2022/11/13 14:21:58;;;;;;;3.50;2.17;;;13.00;99.90;;;;;;5002715;28;20029;-86
2022/11/13 14:24:38;;;;;;;2.90;1.70;;;13.00;99.90;;;;;;4995266;28;20026;-87
2022/11/13 14:27:07;;;;;;;3.20;1.80;;;12.90;99.90;;;;;;5012831;28;20026;-87
2022/11/13 14:29:44;;;;;;;3.60;2.08;;;12.90;99.90;;;;;;5002787;28;20011;-89
2022/11/13 14:32:16;;;;;;;3.72;1.85;;;12.90;99.90;;;;;;5000735;28;20011;-89
2022/11/13 14:34:46;;;;;;;2.40;1.65;;;12.90;99.90;;;;;;4996699;28;20026;-89
2022/11/13 14:37:26;;;;;;;3.47;2.00;;;13.00;99.90;;;;;;4998207;28;20042;-89
2022/11/13 14:39:59;;;;;;;2.70;1.70;;;13.00;99.90;;;;;;4995726;28;20090;-90
2022/11/13 14:42:35;;;;;;;3.10;1.92;;;13.00;99.90;;;;;;4993440;28;20050;-85
2022/11/13 14:45:23;;;;;;;3.15;1.83;;;13.00;99.90;;;;;;4976226;28;20642;-85
2022/11/13 14:47:58;;;;;;;3.03;1.83;;;12.90;99.90;;;;;;4976634;28;20089;-85
2022/11/13 14:50:24;;;;;;;3.08;1.85;;;;;;;;;;4974910;28;20028;-85
2022/11/13 14:53:02;;;;;;;2.95;1.80;;;12.90;99.90;;;;;;4978620;28;20456;-86
2022/11/13 14:55:31;;;;;;;4.43;1.88;;;12.70;99.90;;;;;;4974771;28;20066;-86
2022/11/13 14:57:57;;;;;;;3.50;1.95;;;14.80;99.90;;;;;;4994078;28;20025;-86
2022/11/13 15:00:33;;;;;;;4.18;2.28;;;14.80;99.90;;;;;;4993110;28;20053;-85
2022/11/13 15:03:00;;;;;;;4.32;2.13;;;12.60;99.90;;;;;;4978046;28;20061;-86
2022/11/13 15:05:26;;;;;;;3.67;2.22;;;13.60;99.90;;;;;;4973390;28;20492;-86
2022/11/13 15:07:54;;;;;;;2.85;1.90;;;12.50;99.90;;;;;;4977702;28;20040;-87
2022/11/13 15:10:23;;;;;;;3.00;1.75;;;12.60;99.90;;;;;;4976213;28;20146;-86
2022/11/13 15:12:49;;;;;;;4.53;2.38;;;;;;;;;;4975021;28;20023;-84
2022/11/13 15:15:25;;;;;;;4.28;1.88;;;12.50;99.90;;;;;;4979047;28;20114;-85
2022/11/13 15:17:51;;;;;;;3.58;2.00;;;14.60;99.90;;;;;;4980393;28;20022;-86
2022/11/13 15:20:23;;;;;;;3.45;2.13;;;12.50;99.90;;;;;;4977567;28;20396;-85
2022/11/13 15:22:51;;;;;;;3.38;2.10;;;12.60;99.90;;;;;;4997887;28;20010;-87
2022/11/13 15:25:21;;;;;;;2.63;1.90;;;14.70;99.90;;;;;;4997624;28;20022;-86
2022/11/13 15:27:47;;;;;;;3.30;2.10;;;;;;;;;;4995878;28;20041;-85
2022/11/13 15:30:13;;;;;;;3.03;1.98;;;;;;;;;;4996523;28;20113;-86
2022/11/13 15:32:40;;;;;;;4.53;2.20;;;;;;;;;;4960630;28;20024;-87
2022/11/13 15:35:14;;;;;;;6.30;1.80;;;12.10;99.90;;;;;;4983318;28;20030;-88
2022/11/13 15:37:40;;;;;;;3.55;1.80;;;;;;;;;;4978463;28;20033;-87
2022/11/13 15:40:07;;;;;;;4.50;2.47;;;;;;;;;;4978996;28;20476;-87
2022/11/13 15:42:34;;;;;;;5.75;2.55;;;12.10;99.90;;;;;;4996349;28;20038;-87
2022/11/13 15:45:00;;;;;;;6.43;3.78;;;;;;;;;;4996594;28;20042;-86
2022/11/13 15:47:33;;;;;;;4.05;2.10;;;12.10;99.90;;;;;;4990631;28;20097;-85
2022/11/13 15:49:59;;;;;;;4.32;2.10;;;;;;;;;;4974024;28;20093;-85
2022/11/13 15:52:28;;;;;;;3.40;2.00;;;12.10;99.90;;;;;;4980833;28;20106;-84
2022/11/13 15:55:01;;;;;;;4.03;2.45;;;12.00;99.90;;;;;;4977643;28;20034;-86
2022/11/13 15:57:36;;;;;;;6.10;3.55;;;11.90;99.90;;;;;;4980474;28;20030;-86
2022/11/13 16:00:11;;;;;;;5.38;3.50;;;11.80;99.90;;;;;;4978933;28;20049;-85
2022/11/13 16:02:38;;;;;;;6.25;4.13;;;;;;;;;;4991433;28;20030;-87
2022/11/13 16:05:04;;;;;;;4.78;3.10;;;;;;;;;;4980878;28;20018;-89
2022/11/13 16:07:30;;;;;;;5.47;3.50;;;;;;;;;;4991878;28;20027;-89
2022/11/13 16:09:56;;;;;;;7.38;3.47;;;11.60;99.90;;;;;;4979371;28;20477;-87
2022/11/13 16:12:22;;;;;;;4.28;2.42;;;;;;;;;;4979431;28;20030;-88
2022/11/13 16:14:48;;;;;;;4.95;2.63;;;;;;;;;;4994620;28;20038;-87
2022/11/13 16:17:21;;;;;;;6.18;3.40;;;11.40;99.90;;;;;;4980584;28;20034;-88
2022/11/13 16:19:53;;;;;;;4.93;2.75;;;12.40;99.90;;;;;;4976924;28;20065;-88
2022/11/13 16:22:23;;;;;;;4.43;2.53;;;13.10;99.90;;;;;;4980718;28;20022;-88
2022/11/13 16:24:50;;;;;;;5.38;2.92;;;;;;;;;;4980929;28;20054;-88
2022/11/13 16:27:26;;;;;;;5.22;3.03;;;11.20;99.90;;;;;;4982000;28;20056;-88
2022/11/13 16:29:52;;;;;;;4.40;2.80;;;11.20;99.90;;;;;;5010111;28;20064;-87
2022/11/13 16:32:24;;;;;;;5.75;3.33;;;12.00;99.90;;;;;;4995976;28;20038;-86
2022/11/13 16:34:50;;;;;;;5.13;3.45;;;11.20;99.90;;;;;;4991868;28;20030;-87
2022/11/13 16:37:21;;;;;;;5.72;3.97;;;11.20;99.90;;;;;;5001412;28;20031;-88
2022/11/13 16:39:47;;;;;;;7.78;3.90;;;13.60;99.90;;;;;;5009477;28;20109;-88
2022/11/13 16:42:14;;;;;;;7.45;3.67;;;11.00;99.90;;;;;;4963643;23;20085;-87
2022/11/13 16:44:40;;;;;;;5.65;3.28;;;11.10;99.90;;;;;;4979222;28;20033;-88
2022/11/13 16:47:23;;;;;;;6.50;3.72;;;11.10;99.90;;;;;;4975456;28;20034;-87
2022/11/13 16:49:49;;;;;;;5.38;3.33;;;10.80;99.90;;;;;;4974621;28;20054;-85
2022/11/13 16:52:15;;;;;;;7.47;3.80;;;10.80;99.90;;;;;;4979672;28;20477;-86
2022/11/13 16:54:41;;;;;;;5.00;3.60;;;11.00;99.90;;;;;;4977253;28;20046;-87
2022/11/13 16:57:13;;;;;;;6.68;3.58;;;11.60;99.90;;;;;;4978629;28;20029;-88
2022/11/13 16:59:39;;;;;;;6.35;3.88;;;11.10;99.90;;;;;;4974409;28;20035;-84
2022/11/13 17:02:14;;;;;;;6.28;3.88;;;13.20;99.90;;;;;;4977508;28;20054;-83
2022/11/13 17:04:40;;;;;;;6.95;3.78;;;10.20;99.90;;;;;;4963447;28;20027;-85
2022/11/13 17:07:06;;;;;;;7.82;4.20;;;;;;;;;;4958126;28;20564;-87
2022/11/13 17:09:32;;;;;;;6.85;4.70;;;;;;;;;;4979207;28;20034;-83
2022/11/13 17:11:57;;;;;;;8.82;4.20;;;10.40;99.90;;;;;;4965103;28;20066;-85
2022/11/13 17:14:23;;;;;;;6.40;4.13;;;8.70;99.90;;;;;;4962303;28;20039;-85
2022/11/13 17:16:49;;;;;;;8.63;5.05;;;11.70;99.90;;;;;;4957193;28;20082;-84
2022/11/13 17:19:15;;;;;;;10.20;5.78;;;;;;;;;;4980556;28;20521;-88
2022/11/13 17:21:40;;;;;;;10.43;7.15;;;10.20;99.90;;;;;;4983142;28;20011;-87
2022/11/13 17:24:07;;;;;;;5.65;3.72;;;10.20;99.90;;;;;;4978639;28;20031;-87
2022/11/13 17:26:33;;;;;;;8.32;4.20;;;9.80;99.90;;;;;;4993563;28;20769;-85
2022/11/13 17:29:00;;;;;;;6.88;4.30;;;10.20;99.90;;;;;;4964967;28;20034;-84
2022/11/13 17:31:28;;;;;;;5.68;4.15;;;10.10;99.90;;;;;;4960723;28;20033;-87
2022/11/13 17:33:56;;;;;;;7.28;4.22;;;11.70;99.90;;;;;;4976091;28;20041;-84
2022/11/13 17:36:22;;;;;;;6.70;4.28;;;10.10;99.90;;;;;;4976649;28;20062;-82
2022/11/13 17:38:48;;;;;;;6.00;4.03;;;10.00;99.90;;;;;;4959224;28;20042;-84
2022/11/13 17:41:15;;;;;;;6.82;4.47;;;10.30;99.90;;;;;;4977856;28;20078;-84
2022/11/13 17:43:42;;;;;;;8.43;4.63;;;9.90;99.90;;;;;;4975247;28;20027;-84